HMB weather

Sohag International Airport
Sohag, Sohag Governorate, Egypt

Public forecast

Using degrees Celsius for public forecast. Weather courtesy of forecast.io.

METAR (pilot weather report)

Closest report is Assiut International Airport, 57.6 nm (106.7 km) NW. Retrieved 2019/02/21 01:00 UTC (51 minutes ago):

HEAT 210100Z 01004KT CAVOK 09/05 Q1021 NOSIG

TAF (pilot weather forecast)

Forecast is more than 12 hours old.

Closest forecast is Assiut International Airport, 57.6 nm (106.7 km) NW. Retrieved 2019/02/17 18:00 UTC (3 days ago):

TAF HEAT 171700Z 1718/1824 34012KT CAVOK